sensor_id;sensor_type;location;lat;lon;timestamp;pressure;altitude;pressure_sealevel;temperature;humidity
21236;BME280;10775;42.678;26.324;2024-01-06T00:02:05;98696.69;;;7.08;100.00
21236;BME280;10775;42.678;26.324;2024-01-06T00:04:30;98696.72;;;7.02;100.00
21236;BME280;10775;42.678;26.324;2024-01-06T00:06:56;98704.56;;;6.92;100.00
21236;BME280;10775;42.678;26.324;2024-01-06T00:09:22;98704.56;;;6.89;100.00
21236;BME280;10775;42.678;26.324;2024-01-06T00:11:47;98711.50;;;6.87;100.00
21236;BME280;10775;42.678;26.324;2024-01-06T00:14:12;98714.16;;;6.83;100.00
21236;BME280;10775;42.678;26.324;2024-01-06T00:16:38;98714.16;;;6.83;100.00
21236;BME280;10775;42.678;26.324;2024-01-06T00:19:03;98698.56;;;6.83;100.00
21236;BME280;10775;42.678;26.324;2024-01-06T00:21:29;98703.72;;;6.87;100.00
21236;BME280;10775;42.678;26.324;2024-01-06T00:23:54;98700.25;;;6.88;100.00
21236;BME280;10775;42.678;26.324;2024-01-06T00:26:22;98698.53;;;6.86;100.00
21236;BME280;10775;42.678;26.324;2024-01-06T00:28:49;98697.66;;;6.82;100.00
21236;BME280;10775;42.678;26.324;2024-01-06T00:31:15;98689.91;;;6.79;100.00
21236;BME280;10775;42.678;26.324;2024-01-06T00:33:42;98697.69;;;6.81;100.00
21236;BME280;10775;42.678;26.324;2024-01-06T00:36:08;98680.41;;;6.75;100.00
21236;BME280;10775;42.678;26.324;2024-01-06T00:38:34;98686.44;;;6.79;100.00
21236;BME280;10775;42.678;26.324;2024-01-06T00:41:00;98681.25;;;6.79;100.00
21236;BME280;10775;42.678;26.324;2024-01-06T00:43:26;98686.41;;;6.85;100.00
21236;BME280;10775;42.678;26.324;2024-01-06T00:45:51;98684.66;;;6.87;100.00
21236;BME280;10775;42.678;26.324;2024-01-06T00:48:17;98676.84;;;6.93;100.00
21236;BME280;10775;42.678;26.324;2024-01-06T00:50:42;98685.50;;;6.96;100.00
21236;BME280;10775;42.678;26.324;2024-01-06T00:53:08;98684.66;;;6.91;100.00
21236;BME280;10775;42.678;26.324;2024-01-06T00:55:33;98680.38;;;6.81;100.00
21236;BME280;10775;42.678;26.324;2024-01-06T00:57:58;98688.19;;;6.75;100.00
21236;BME280;10775;42.678;26.324;2024-01-06T01:00:24;98681.25;;;6.77;100.00
21236;BME280;10775;42.678;26.324;2024-01-06T01:02:49;98665.72;;;6.68;100.00
21236;BME280;10775;42.678;26.324;2024-01-06T01:05:15;98667.44;;;6.70;100.00
21236;BME280;10775;42.678;26.324;2024-01-06T01:07:40;98668.28;;;6.74;100.00
21236;BME280;10775;42.678;26.324;2024-01-06T01:10:06;98646.66;;;6.70;100.00
21236;BME280;10775;42.678;26.324;2024-01-06T01:12:31;98655.28;;;6.71;100.00
21236;BME280;10775;42.678;26.324;2024-01-06T01:14:57;98642.25;;;6.77;100.00
21236;BME280;10775;42.678;26.324;2024-01-06T01:17:22;98653.53;;;6.81;100.00
21236;BME280;10775;42.678;26.324;2024-01-06T01:19:48;98647.44;;;6.83;100.00
21236;BME280;10775;42.678;26.324;2024-01-06T01:22:13;98643.94;;;6.87;100.00
21236;BME280;10775;42.678;26.324;2024-01-06T01:24:39;98638.75;;;6.87;100.00
21236;BME280;10775;42.678;26.324;2024-01-06T01:27:05;98632.72;;;6.84;100.00
21236;BME280;10775;42.678;26.324;2024-01-06T01:29:30;98634.41;;;6.85;100.00
21236;BME280;10775;42.678;26.324;2024-01-06T01:31:56;98640.50;;;6.88;100.00
21236;BME280;10775;42.678;26.324;2024-01-06T01:34:21;98638.69;;;6.96;100.00
21236;BME280;10775;42.678;26.324;2024-01-06T01:36:47;98648.25;;;6.96;100.00
21236;BME280;10775;42.678;26.324;2024-01-06T01:39:12;98644.81;;;6.91;100.00
21236;BME280;10775;42.678;26.324;2024-01-06T01:41:40;98639.63;;;6.86;100.00
21236;BME280;10775;42.678;26.324;2024-01-06T01:44:05;98639.66;;;6.83;100.00
21236;BME280;10775;42.678;26.324;2024-01-06T01:46:31;98637.88;;;6.88;100.00
21236;BME280;10775;42.678;26.324;2024-01-06T01:48:58;98637.03;;;6.85;100.00
21236;BME280;10775;42.678;26.324;2024-01-06T01:51:28;98626.63;;;6.86;100.00
21236;BME280;10775;42.678;26.324;2024-01-06T01:53:55;98645.69;;;6.88;100.00
21236;BME280;10775;42.678;26.324;2024-01-06T01:56:21;98646.56;;;6.84;100.00
21236;BME280;10775;42.678;26.324;2024-01-06T01:58:47;98643.19;;;6.68;100.00
21236;BME280;10775;42.678;26.324;2024-01-06T02:01:14;98640.53;;;6.79;100.00
21236;BME280;10775;42.678;26.324;2024-01-06T02:03:43;98633.59;;;6.81;100.00
21236;BME280;10775;42.678;26.324;2024-01-06T02:06:09;98636.22;;;6.78;100.00
21236;BME280;10775;42.678;26.324;2024-01-06T02:08:35;98626.66;;;6.77;100.00
21236;BME280;10775;42.678;26.324;2024-01-06T02:11:00;98633.56;;;6.86;100.00
21236;BME280;10775;42.678;26.324;2024-01-06T02:13:36;98635.28;;;6.88;100.00
21236;BME280;10775;42.678;26.324;2024-01-06T02:16:05;98630.94;;;6.87;100.00
21236;BME280;10775;42.678;26.324;2024-01-06T02:18:31;98622.28;;;6.93;100.00
21236;BME280;10775;42.678;26.324;2024-01-06T02:20:58;98616.16;;;6.99;100.00
21236;BME280;10775;42.678;26.324;2024-01-06T02:23:24;98611.81;;;6.97;100.00
21236;BME280;10775;42.678;26.324;2024-01-06T02:25:50;98608.34;;;7.00;100.00
21236;BME280;10775;42.678;26.324;2024-01-06T02:28:15;98597.97;;;6.99;100.00
21236;BME280;10775;42.678;26.324;2024-01-06T02:30:40;98595.38;;;6.92;100.00
21236;BME280;10775;42.678;26.324;2024-01-06T02:33:06;98594.53;;;6.93;100.00
21236;BME280;10775;42.678;26.324;2024-01-06T02:35:31;98586.75;;;6.90;100.00
21236;BME280;10775;42.678;26.324;2024-01-06T02:37:57;98585.06;;;6.86;100.00
21236;BME280;10775;42.678;26.324;2024-01-06T02:40:22;98572.97;;;6.79;100.00
21236;BME280;10775;42.678;26.324;2024-01-06T02:42:48;98576.47;;;6.75;100.00
21236;BME280;10775;42.678;26.324;2024-01-06T02:45:13;98569.56;;;6.72;100.00
21236;BME280;10775;42.678;26.324;2024-01-06T02:47:39;98575.63;;;6.70;100.00
21236;BME280;10775;42.678;26.324;2024-01-06T02:50:05;98565.28;;;6.61;100.00
21236;BME280;10775;42.678;26.324;2024-01-06T02:52:30;98568.78;;;6.55;100.00
21236;BME280;10775;42.678;26.324;2024-01-06T02:54:56;98569.66;;;6.51;100.00
21236;BME280;10775;42.678;26.324;2024-01-06T02:57:21;98570.56;;;6.44;100.00
21236;BME280;10775;42.678;26.324;2024-01-06T02:59:47;98568.84;;;6.43;100.00
21236;BME280;10775;42.678;26.324;2024-01-06T03:02:13;98572.34;;;6.37;100.00
21236;BME280;10775;42.678;26.324;2024-01-06T03:04:38;98582.75;;;6.34;100.00
21236;BME280;10775;42.678;26.324;2024-01-06T03:07:04;98580.19;;;6.22;100.00
21236;BME280;10775;42.678;26.324;2024-01-06T03:09:29;98575.88;;;6.19;100.00
21236;BME280;10775;42.678;26.324;2024-01-06T03:11:55;98577.56;;;6.23;100.00
21236;BME280;10775;42.678;26.324;2024-01-06T03:14:21;98575.81;;;6.35;100.00
21236;BME280;10775;42.678;26.324;2024-01-06T03:16:46;98568.88;;;6.34;100.00
21236;BME280;10775;42.678;26.324;2024-01-06T03:19:12;98574.97;;;6.34;100.00
21236;BME280;10775;42.678;26.324;2024-01-06T03:21:37;98565.44;;;6.31;100.00
21236;BME280;10775;42.678;26.324;2024-01-06T03:24:04;98563.72;;;6.30;100.00
21236;BME280;10775;42.678;26.324;2024-01-06T03:26:29;98566.31;;;6.32;100.00
21236;BME280;10775;42.678;26.324;2024-01-06T03:28:56;98559.38;;;6.34;100.00
21236;BME280;10775;42.678;26.324;2024-01-06T03:31:21;98561.97;;;6.32;100.00
21236;BME280;10775;42.678;26.324;2024-01-06T03:33:47;98560.25;;;6.30;100.00
21236;BME280;10775;42.678;26.324;2024-01-06T03:36:13;98567.22;;;6.26;100.00
21236;BME280;10775;42.678;26.324;2024-01-06T03:38:41;98580.19;;;6.23;100.00
21236;BME280;10775;42.678;26.324;2024-01-06T03:41:06;98586.22;;;6.25;100.00
21236;BME280;10775;42.678;26.324;2024-01-06T03:43:32;98577.56;;;6.32;100.00
21236;BME280;10775;42.678;26.324;2024-01-06T03:45:58;98587.09;;;6.32;100.00
21236;BME280;10775;42.678;26.324;2024-01-06T03:48:25;98595.72;;;6.31;100.00
21236;BME280;10775;42.678;26.324;2024-01-06T03:50:51;98585.38;;;6.29;100.00
21236;BME280;10775;42.678;26.324;2024-01-06T03:53:16;98587.09;;;6.29;100.00
21236;BME280;10775;42.678;26.324;2024-01-06T03:55:42;98582.75;;;6.32;100.00
21236;BME280;10775;42.678;26.324;2024-01-06T03:58:07;98576.72;;;6.29;100.00
21236;BME280;10775;42.678;26.324;2024-01-06T04:00:32;98580.19;;;6.25;100.00
21236;BME280;10775;42.678;26.324;2024-01-06T04:02:58;98573.25;;;6.21;100.00
21236;BME280;10775;42.678;26.324;2024-01-06T04:05:23;98577.63;;;6.19;100.00
21236;BME280;10775;42.678;26.324;2024-01-06T04:07:49;98568.09;;;6.15;100.00
21236;BME280;10775;42.678;26.324;2024-01-06T04:10:14;98574.19;;;6.14;100.00
21236;BME280;10775;42.678;26.324;2024-01-06T04:12:40;98581.09;;;6.15;100.00
21236;BME280;10775;42.678;26.324;2024-01-06T04:15:05;98568.97;;;6.12;100.00
21236;BME280;10775;42.678;26.324;2024-01-06T04:17:31;98575.03;;;6.13;100.00
21236;BME280;10775;42.678;26.324;2024-01-06T04:19:56;98575.91;;;6.12;100.00
21236;BME280;10775;42.678;26.324;2024-01-06T04:22:21;98569.00;;;6.09;100.00
21236;BME280;10775;42.678;26.324;2024-01-06T04:24:47;98575.06;;;6.06;100.00
21236;BME280;10775;42.678;26.324;2024-01-06T04:27:13;98571.59;;;6.04;100.00
21236;BME280;10775;42.678;26.324;2024-01-06T04:29:38;98570.75;;;6.02;100.00
21236;BME280;10775;42.678;26.324;2024-01-06T04:32:04;98556.91;;;6.00;100.00
21236;BME280;10775;42.678;26.324;2024-01-06T04:34:30;98573.34;;;5.99;100.00
21236;BME280;10775;42.678;26.324;2024-01-06T04:36:55;98575.97;;;6.01;100.00
21236;BME280;10775;42.678;26.324;2024-01-06T04:39:21;98575.94;;;5.98;100.00
21236;BME280;10775;42.678;26.324;2024-01-06T04:41:46;98579.41;;;5.95;100.00
21236;BME280;10775;42.678;26.324;2024-01-06T04:44:12;98571.63;;;5.91;100.00
21236;BME280;10775;42.678;26.324;2024-01-06T04:46:37;98566.44;;;5.89;100.00
21236;BME280;10775;42.678;26.324;2024-01-06T04:49:03;98578.53;;;5.87;100.00
21236;BME280;10775;42.678;26.324;2024-01-06T04:51:29;98574.25;;;5.83;100.00
21236;BME280;10775;42.678;26.324;2024-01-06T04:53:54;98571.63;;;5.84;100.00
21236;BME280;10775;42.678;26.324;2024-01-06T04:56:19;98577.69;;;5.85;100.00
21236;BME280;10775;42.678;26.324;2024-01-06T04:58:45;98575.09;;;5.88;100.00
21236;BME280;10775;42.678;26.324;2024-01-06T05:01:11;98582.03;;;5.86;100.00
21236;BME280;10775;42.678;26.324;2024-01-06T05:03:36;98575.94;;;5.82;100.00
21236;BME280;10775;42.678;26.324;2024-01-06T05:06:01;98565.59;;;5.81;100.00
21236;BME280;10775;42.678;26.324;2024-01-06T05:08:27;98586.34;;;5.81;100.00
21236;BME280;10775;42.678;26.324;2024-01-06T05:10:53;98577.69;;;5.77;100.00
21236;BME280;10775;42.678;26.324;2024-01-06T05:13:19;98571.69;;;5.71;100.00
21236;BME280;10775;42.678;26.324;2024-01-06T05:15:44;98585.50;;;5.71;100.00
21236;BME280;10775;42.678;26.324;2024-01-06T05:18:10;98590.69;;;5.66;100.00
21236;BME280;10775;42.678;26.324;2024-01-06T05:20:35;98579.44;;;5.69;100.00
21236;BME280;10775;42.678;26.324;2024-01-06T05:23:01;98584.66;;;5.68;100.00
21236;BME280;10775;42.678;26.324;2024-01-06T05:25:26;98580.34;;;5.65;100.00
21236;BME280;10775;42.678;26.324;2024-01-06T05:27:51;98588.09;;;5.66;100.00
21236;BME280;10775;42.678;26.324;2024-01-06T05:30:17;98576.88;;;5.66;100.00
21236;BME280;10775;42.678;26.324;2024-01-06T05:32:43;98588.94;;;5.75;100.00
21236;BME280;10775;42.678;26.324;2024-01-06T05:35:09;98588.06;;;5.88;100.00
21236;BME280;10775;42.678;26.324;2024-01-06T05:37:34;98576.84;;;5.81;100.00
21236;BME280;10775;42.678;26.324;2024-01-06T05:39:59;98588.06;;;5.88;100.00
21236;BME280;10775;42.678;26.324;2024-01-06T05:42:28;98589.81;;;5.97;100.00
21236;BME280;10775;42.678;26.324;2024-01-06T05:44:53;98589.78;;;6.01;100.00
21236;BME280;10775;42.678;26.324;2024-01-06T05:47:19;98579.41;;;6.01;100.00
21236;BME280;10775;42.678;26.324;2024-01-06T05:49:45;98582.00;;;6.04;100.00
21236;BME280;10775;42.678;26.324;2024-01-06T05:52:10;98586.28;;;6.15;100.00
21236;BME280;10775;42.678;26.324;2024-01-06T05:54:36;98581.09;;;6.15;100.00
21236;BME280;10775;42.678;26.324;2024-01-06T05:57:01;98586.25;;;6.18;100.00
21236;BME280;10775;42.678;26.324;2024-01-06T05:59:27;98581.91;;;6.29;100.00
21236;BME280;10775;42.678;26.324;2024-01-06T06:01:53;98578.41;;;6.33;100.00
21236;BME280;10775;42.678;26.324;2024-01-06T06:04:18;98580.13;;;6.40;100.00
21236;BME280;10775;42.678;26.324;2024-01-06T06:06:44;98578.38;;;6.36;100.00
21236;BME280;10775;42.678;26.324;2024-01-06T06:09:10;98574.03;;;6.43;100.00
21236;BME280;10775;42.678;26.324;2024-01-06T06:11:36;98578.31;;;6.51;100.00
21236;BME280;10775;42.678;26.324;2024-01-06T06:14:01;98578.28;;;6.61;100.00
21236;BME280;10775;42.678;26.324;2024-01-06T06:16:30;98580.81;;;6.67;100.00
21236;BME280;10775;42.678;26.324;2024-01-06T06:18:55;98579.06;;;6.73;100.00
21236;BME280;10775;42.678;26.324;2024-01-06T06:21:21;98566.94;;;6.75;100.00
21236;BME280;10775;42.678;26.324;2024-01-06T06:23:46;98576.41;;;6.81;100.00
21236;BME280;10775;42.678;26.324;2024-01-06T06:26:12;98580.72;;;6.87;100.00
21236;BME280;10775;42.678;26.324;2024-01-06T06:28:38;98581.56;;;6.89;100.00
21236;BME280;10775;42.678;26.324;2024-01-06T06:31:03;98577.25;;;6.88;100.00
21236;BME280;10775;42.678;26.324;2024-01-06T06:33:29;98577.25;;;6.86;100.00
21236;BME280;10775;42.678;26.324;2024-01-06T06:35:55;98579.00;;;6.86;100.00
21236;BME280;10775;42.678;26.324;2024-01-06T06:38:20;98577.28;;;6.83;100.00
21236;BME280;10775;42.678;26.324;2024-01-06T06:40:46;98572.00;;;6.94;100.00
21236;BME280;10775;42.678;26.324;2024-01-06T06:43:13;98584.06;;;7.06;100.00
21236;BME280;10775;42.678;26.324;2024-01-06T06:45:38;98580.41;;;7.25;100.00
21236;BME280;10775;42.678;26.324;2024-01-06T06:48:04;98578.53;;;7.41;100.00
21236;BME280;10775;42.678;26.324;2024-01-06T06:50:29;98574.06;;;7.60;100.00
21236;BME280;10775;42.678;26.324;2024-01-06T06:52:55;98561.81;;;7.68;100.00
21236;BME280;10775;42.678;26.324;2024-01-06T06:55:21;98560.84;;;7.80;100.00
21236;BME280;10775;42.678;26.324;2024-01-06T06:57:46;98565.94;;;7.91;100.00
21236;BME280;10775;42.678;26.324;2024-01-06T07:00:12;98560.69;;;7.95;100.00
21236;BME280;10775;42.678;26.324;2024-01-06T07:02:38;98559.69;;;8.04;100.00
21236;BME280;10775;42.678;26.324;2024-01-06T07:05:04;98564.81;;;8.10;100.00
21236;BME280;10775;42.678;26.324;2024-01-06T07:07:32;98555.28;;;8.11;100.00
21236;BME280;10775;42.678;26.324;2024-01-06T07:10:00;98557.94;;;8.06;100.00
21236;BME280;10775;42.678;26.324;2024-01-06T07:12:25;98561.41;;;8.08;100.00
21236;BME280;10775;42.678;26.324;2024-01-06T07:14:52;98549.38;;;7.95;100.00
21236;BME280;10775;42.678;26.324;2024-01-06T07:17:17;98557.28;;;7.87;100.00
21236;BME280;10775;42.678;26.324;2024-01-06T07:19:43;98552.03;;;7.92;100.00
21236;BME280;10775;42.678;26.324;2024-01-06T07:22:08;98552.09;;;7.84;100.00
21236;BME280;10775;42.678;26.324;2024-01-06T07:24:34;98554.66;;;7.89;100.00
21236;BME280;10775;42.678;26.324;2024-01-06T07:27:02;98544.22;;;7.92;100.00
21236;BME280;10775;42.678;26.324;2024-01-06T07:29:28;98547.66;;;7.95;100.00
21236;BME280;10775;42.678;26.324;2024-01-06T07:31:54;98546.78;;;7.96;100.00
21236;BME280;10775;42.678;26.324;2024-01-06T07:34:19;98551.00;;;8.05;100.00
21236;BME280;10775;42.678;26.324;2024-01-06T07:36:44;98555.19;;;8.18;100.00
21236;BME280;10775;42.678;26.324;2024-01-06T07:39:10;98550.72;;;8.28;100.00
21236;BME280;10775;42.678;26.324;2024-01-06T07:41:35;98543.75;;;8.32;100.00
21236;BME280;10775;42.678;26.324;2024-01-06T07:44:01;98544.59;;;8.31;100.00
21236;BME280;10775;42.678;26.324;2024-01-06T07:46:28;98536.72;;;8.40;100.00
21236;BME280;10775;42.678;26.324;2024-01-06T07:48:54;98540.97;;;8.47;100.00
21236;BME280;10775;42.678;26.324;2024-01-06T07:51:19;98540.13;;;8.45;100.00
21236;BME280;10775;42.678;26.324;2024-01-06T07:53:45;98533.03;;;8.55;100.00
21236;BME280;10775;42.678;26.324;2024-01-06T07:56:10;98527.78;;;8.59;100.00
21236;BME280;10775;42.678;26.324;2024-01-06T07:58:36;98529.44;;;8.63;100.00
21236;BME280;10775;42.678;26.324;2024-01-06T08:01:01;98529.38;;;8.66;100.00
21236;BME280;10775;42.678;26.324;2024-01-06T08:03:27;98529.25;;;8.74;100.00
21236;BME280;10775;42.678;26.324;2024-01-06T08:05:52;98531.00;;;8.74;100.00
21236;BME280;10775;42.678;26.324;2024-01-06T08:08:18;98537.88;;;8.81;100.00
21236;BME280;10775;42.678;26.324;2024-01-06T08:10:44;98539.47;;;8.89;100.00
21236;BME280;10775;42.678;26.324;2024-01-06T08:13:09;98530.72;;;8.95;100.00
21236;BME280;10775;42.678;26.324;2024-01-06T08:15:35;98538.47;;;8.98;100.00
21236;BME280;10775;42.678;26.324;2024-01-06T08:18:00;98534.00;;;9.06;100.00
21236;BME280;10775;42.678;26.324;2024-01-06T08:20:26;98519.13;;;9.10;100.00
21236;BME280;10775;42.678;26.324;2024-01-06T08:22:51;98518.41;;;9.03;100.00
21236;BME280;10775;42.678;26.324;2024-01-06T08:25:17;98525.31;;;9.06;100.00
21236;BME280;10775;42.678;26.324;2024-01-06T08:27:43;98525.13;;;9.17;100.00
21236;BME280;10775;42.678;26.324;2024-01-06T08:30:09;98507.78;;;9.16;100.00
21236;BME280;10775;42.678;26.324;2024-01-06T08:32:34;98517.31;;;9.17;100.00
21236;BME280;10775;42.678;26.324;2024-01-06T08:35:00;98525.00;;;9.26;100.00
21236;BME280;10775;42.678;26.324;2024-01-06T08:37:25;98510.19;;;9.25;100.00
21236;BME280;10775;42.678;26.324;2024-01-06T08:39:50;98507.44;;;9.34;100.00
21236;BME280;10775;42.678;26.324;2024-01-06T08:42:16;98503.00;;;9.39;100.00
21236;BME280;10775;42.678;26.324;2024-01-06T08:44:41;98503.72;;;9.47;100.00
21236;BME280;10775;42.678;26.324;2024-01-06T08:47:09;98501.75;;;9.58;100.00
21236;BME280;10775;42.678;26.324;2024-01-06T08:49:34;98504.28;;;9.63;100.00
21236;BME280;10775;42.678;26.324;2024-01-06T08:52:00;98505.03;;;9.70;100.00
21236;BME280;10775;42.678;26.324;2024-01-06T08:54:25;98491.59;;;9.90;100.00
21236;BME280;10775;42.678;26.324;2024-01-06T08:56:51;98489.97;;;10.26;100.00
21236;BME280;10775;42.678;26.324;2024-01-06T08:59:16;98489.50;;;10.49;100.00
21236;BME280;10775;42.678;26.324;2024-01-06T09:01:42;98477.34;;;10.48;100.00
21236;BME280;10775;42.678;26.324;2024-01-06T09:04:07;98481.88;;;10.77;100.00
21236;BME280;10775;42.678;26.324;2024-01-06T09:06:33;98472.19;;;11.49;100.00
21236;BME280;10775;42.678;26.324;2024-01-06T09:08:58;98472.44;;;12.04;100.00
21236;BME280;10775;42.678;26.324;2024-01-06T09:11:24;98462.84;;;12.33;100.00
21236;BME280;10775;42.678;26.324;2024-01-06T09:13:49;98465.75;;;12.52;100.00
21236;BME280;10775;42.678;26.324;2024-01-06T09:16:18;98463.28;;;12.47;99.74
21236;BME280;10775;42.678;26.324;2024-01-06T09:18:44;98467.78;;;12.14;98.67
21236;BME280;10775;42.678;26.324;2024-01-06T09:21:09;98466.56;;;11.96;100.00
21236;BME280;10775;42.678;26.324;2024-01-06T09:23:35;98461.25;;;11.99;100.00
21236;BME280;10775;42.678;26.324;2024-01-06T09:26:00;98458.75;;;11.94;100.00
21236;BME280;10775;42.678;26.324;2024-01-06T09:28:26;98462.22;;;11.95;100.00
21236;BME280;10775;42.678;26.324;2024-01-06T09:30:51;98453.09;;;12.08;100.00
21236;BME280;10775;42.678;26.324;2024-01-06T09:33:19;98451.03;;;12.20;100.00
21236;BME280;10775;42.678;26.324;2024-01-06T09:35:45;98454.69;;;12.42;100.00
21236;BME280;10775;42.678;26.324;2024-01-06T09:38:10;98456.09;;;12.54;100.00
21236;BME280;10775;42.678;26.324;2024-01-06T09:40:41;98448.31;;;12.51;100.00
21236;BME280;10775;42.678;26.324;2024-01-06T09:43:11;98452.75;;;12.49;100.00
21236;BME280;10775;42.678;26.324;2024-01-06T09:45:39;98449.31;;;12.47;100.00
21236;BME280;10775;42.678;26.324;2024-01-06T09:48:13;98439.91;;;12.39;100.00
21236;BME280;10775;42.678;26.324;2024-01-06T09:50:41;98438.78;;;12.20;100.00
21236;BME280;10775;42.678;26.324;2024-01-06T09:53:11;98427.84;;;12.06;100.00
21236;BME280;10775;42.678;26.324;2024-01-06T09:55:37;98422.56;;;12.07;100.00
21236;BME280;10775;42.678;26.324;2024-01-06T09:58:04;98423.19;;;12.15;100.00
21236;BME280;10775;42.678;26.324;2024-01-06T10:00:30;98415.03;;;11.96;100.00
21236;BME280;10775;42.678;26.324;2024-01-06T10:02:55;98416.75;;;11.98;100.00
21236;BME280;10775;42.678;26.324;2024-01-06T10:05:21;98412.34;;;11.98;100.00
21236;BME280;10775;42.678;26.324;2024-01-06T10:07:47;98412.31;;;12.00;100.00
21236;BME280;10775;42.678;26.324;2024-01-06T10:10:14;98411.41;;;12.01;100.00
21236;BME280;10775;42.678;26.324;2024-01-06T10:12:41;98407.94;;;12.00;100.00
21236;BME280;10775;42.678;26.324;2024-01-06T10:15:11;98407.13;;;11.98;100.00
21236;BME280;10775;42.678;26.324;2024-01-06T10:17:40;98397.69;;;11.92;100.00
21236;BME280;10775;42.678;26.324;2024-01-06T10:20:10;98397.56;;;11.97;100.00
21236;BME280;10775;42.678;26.324;2024-01-06T10:22:36;98384.13;;;12.08;100.00
21236;BME280;10775;42.678;26.324;2024-01-06T10:25:04;98375.22;;;12.13;100.00
21236;BME280;10775;42.678;26.324;2024-01-06T10:27:30;98380.16;;;12.23;100.00
21236;BME280;10775;42.678;26.324;2024-01-06T10:29:56;98370.44;;;12.26;100.00
21236;BME280;10775;42.678;26.324;2024-01-06T10:32:21;98366.03;;;12.27;100.00
21236;BME280;10775;42.678;26.324;2024-01-06T10:34:51;98362.66;;;12.25;100.00
21236;BME280;10775;42.678;26.324;2024-01-06T10:37:17;98357.28;;;12.28;100.00
21236;BME280;10775;42.678;26.324;2024-01-06T10:39:42;98354.81;;;12.23;100.00
21236;BME280;10775;42.678;26.324;2024-01-06T10:42:08;98357.78;;;12.12;100.00
21236;BME280;10775;42.678;26.324;2024-01-06T10:44:34;98349.13;;;12.09;100.00
21236;BME280;10775;42.678;26.324;2024-01-06T10:47:02;98340.91;;;11.93;100.00
21236;BME280;10775;42.678;26.324;2024-01-06T10:49:30;98339.31;;;11.89;100.00
21236;BME280;10775;42.678;26.324;2024-01-06T10:51:56;98337.56;;;11.88;100.00
21236;BME280;10775;42.678;26.324;2024-01-06T10:54:24;98327.16;;;11.86;100.00
21236;BME280;10775;42.678;26.324;2024-01-06T10:56:51;98330.69;;;11.84;100.00
21236;BME280;10775;42.678;26.324;2024-01-06T10:59:18;98323.63;;;11.86;100.00
21236;BME280;10775;42.678;26.324;2024-01-06T11:01:47;98328.72;;;11.92;100.00
21236;BME280;10775;42.678;26.324;2024-01-06T11:04:13;98321.56;;;11.97;100.00
21236;BME280;10775;42.678;26.324;2024-01-06T11:06:39;98315.50;;;11.96;100.00
21236;BME280;10775;42.678;26.324;2024-01-06T11:09:16;98324.13;;;11.99;100.00
21236;BME280;10775;42.678;26.324;2024-01-06T11:11:45;98323.13;;;12.03;100.00
21236;BME280;10775;42.678;26.324;2024-01-06T11:14:24;98326.22;;;11.89;100.00
21236;BME280;10775;42.678;26.324;2024-01-06T11:16:50;98322.47;;;11.96;100.00
21236;BME280;10775;42.678;26.324;2024-01-06T11:24:51;98322.88;;;12.12;100.00
21236;BME280;10775;42.678;26.324;2024-01-06T11:27:22;98316.50;;;12.19;100.00
21236;BME280;10775;42.678;26.324;2024-01-06T11:29:51;98317.13;;;12.27;100.00
21236;BME280;10775;42.678;26.324;2024-01-06T11:32:25;98315.91;;;12.37;100.00
21236;BME280;10775;42.678;26.324;2024-01-06T11:34:51;98309.63;;;12.43;100.00
21236;BME280;10775;42.678;26.324;2024-01-06T11:37:25;98304.00;;;12.54;100.00
21236;BME280;10775;42.678;26.324;2024-01-06T11:39:59;98294.31;;;12.56;100.00
21236;BME280;10775;42.678;26.324;2024-01-06T11:42:32;98293.41;;;12.57;100.00
21236;BME280;10775;42.678;26.324;2024-01-06T11:45:01;98300.53;;;12.53;100.00
21236;BME280;10775;42.678;26.324;2024-01-06T11:47:27;98294.78;;;12.42;100.00
21236;BME280;10775;42.678;26.324;2024-01-06T11:49:56;98292.47;;;12.33;100.00
21236;BME280;10775;42.678;26.324;2024-01-06T11:52:24;98287.41;;;12.27;100.00
21236;BME280;10775;42.678;26.324;2024-01-06T11:54:52;98285.81;;;12.23;100.00
21236;BME280;10775;42.678;26.324;2024-01-06T11:57:17;98282.19;;;12.27;100.00
21236;BME280;10775;42.678;26.324;2024-01-06T11:59:43;98274.38;;;12.25;100.00
21236;BME280;10775;42.678;26.324;2024-01-06T12:02:12;98271.81;;;12.24;100.00
21236;BME280;10775;42.678;26.324;2024-01-06T12:04:38;98265.44;;;12.31;100.00
21236;BME280;10775;42.678;26.324;2024-01-06T12:07:09;98260.88;;;12.37;100.00
21236;BME280;10775;42.678;26.324;2024-01-06T12:09:38;98253.38;;;12.52;100.00
21236;BME280;10775;42.678;26.324;2024-01-06T12:12:04;98253.00;;;12.62;100.00
21236;BME280;10775;42.678;26.324;2024-01-06T12:14:34;98251.41;;;12.58;100.00
21236;BME280;10775;42.678;26.324;2024-01-06T12:16:59;98253.09;;;12.59;100.00
21236;BME280;10775;42.678;26.324;2024-01-06T12:19:32;98249.63;;;12.59;100.00
21236;BME280;10775;42.678;26.324;2024-01-06T12:21:58;98251.44;;;12.57;100.00
21236;BME280;10775;42.678;26.324;2024-01-06T12:24:24;98255.72;;;12.59;100.00
21236;BME280;10775;42.678;26.324;2024-01-06T12:26:50;98248.44;;;12.68;100.00
21236;BME280;10775;42.678;26.324;2024-01-06T12:29:17;98242.31;;;12.69;100.00
21236;BME280;10775;42.678;26.324;2024-01-06T12:31:43;98241.50;;;12.67;100.00
21236;BME280;10775;42.678;26.324;2024-01-06T12:34:10;98251.19;;;12.65;100.00
21236;BME280;10775;42.678;26.324;2024-01-06T12:36:39;98246.75;;;12.67;100.00
21236;BME280;10775;42.678;26.324;2024-01-06T12:39:06;98252.84;;;12.67;100.00
21236;BME280;10775;42.678;26.324;2024-01-06T12:41:37;98248.53;;;12.66;100.00
21236;BME280;10775;42.678;26.324;2024-01-06T12:44:03;98248.66;;;12.61;100.00
21236;BME280;10775;42.678;26.324;2024-01-06T12:46:29;98254.78;;;12.62;100.00
21236;BME280;10775;42.678;26.324;2024-01-06T12:48:54;98254.78;;;12.62;100.00